Time;durP1;ratioP1;P1;durP2;ratioP2;P2;SDS_P1;SDS_P2;PMS_P1;PMS_P2;Temp;Humidity;BMP_temperature;BMP_pressure;BME280_temperature;BME280_humidity;BME280_pressure;Samples;Min_cycle;Max_cycle;Signal;HPM_P1;HPM_P2
2023/09/09 00:01:48;;;;;;;14.67;13.30;;;;;;;;;;5281157;28;20438;-69
2023/09/09 00:04:19;;;;;;;14.03;12.73;;;;;;;;;;5281934;28;20353;-68
2023/09/09 00:06:50;;;;;;;13.53;12.13;;;;;;;;;;5280218;28;20750;-68
2023/09/09 00:09:21;;;;;;;14.48;13.10;;;;;;;;;;5281344;28;20274;-68
2023/09/09 00:11:53;;;;;;;13.93;12.73;;;;;;;;;;5280072;28;20021;-69
2023/09/09 00:14:25;;;;;;;15.10;13.57;;;;;;;;;;5280963;28;20020;-69
2023/09/09 00:16:57;;;;;;;16.25;13.57;;;;;;;;;;5280910;28;20036;-68
2023/09/09 00:19:28;;;;;;;16.20;14.60;;;;;;;;;;5280107;28;20471;-69
2023/09/09 00:22:00;;;;;;;16.00;14.45;;;;;;;;;;5280749;28;20102;-69
2023/09/09 00:24:31;;;;;;;16.73;15.07;;;;;;;;;;5280750;28;20544;-69
2023/09/09 00:27:02;;;;;;;16.73;15.27;;;;;;;;;;5280539;28;20111;-69
2023/09/09 00:29:33;;;;;;;16.45;15.00;;;;;;;;;;5280428;28;20263;-69
2023/09/09 00:32:05;;;;;;;16.40;14.83;;;;;;;;;;5281007;28;20044;-69
2023/09/09 00:34:36;;;;;;;16.55;15.13;;;;;;;;;;5279842;28;20271;-70
2023/09/09 00:37:08;;;;;;;18.55;16.85;;;;;;;;;;5281143;28;20017;-69
2023/09/09 00:39:39;;;;;;;17.88;16.30;;;;;;;;;;5280297;28;20025;-69
2023/09/09 00:42:10;;;;;;;19.17;17.25;;;;;;;;;;5280120;28;20020;-69
2023/09/09 00:44:42;;;;;;;19.05;17.35;;;;;;;;;;5280841;28;20024;-69
2023/09/09 00:47:13;;;;;;;19.13;17.52;;;;;;;;;;5280190;28;20040;-69
2023/09/09 00:49:44;;;;;;;19.30;17.60;;;;;;;;;;5280099;28;20016;-69
2023/09/09 00:52:15;;;;;;;19.90;17.98;;;;;;;;;;5280853;28;20025;-68
2023/09/09 00:54:47;;;;;;;20.92;18.88;;;;;;;;;;5280699;28;20116;-69
2023/09/09 00:57:18;;;;;;;22.13;20.10;;;;;;;;;;5284843;28;20042;-69
2023/09/09 00:59:49;;;;;;;21.98;19.88;;;;;;;;;;5284003;28;20052;-69
2023/09/09 01:02:21;;;;;;;21.80;19.90;;;;;;;;;;5283781;28;20020;-69
2023/09/09 01:04:52;;;;;;;23.08;20.73;;;;;;;;;;5283913;28;20016;-69
2023/09/09 01:07:23;;;;;;;22.05;20.05;;;;;;;;;;5283954;28;20048;-69
2023/09/09 01:09:54;;;;;;;21.83;19.93;;;;;;;;;;5283661;28;20046;-69
2023/09/09 01:12:27;;;;;;;22.43;20.10;;;;;;;;;;5284786;28;20259;-68
2023/09/09 01:14:58;;;;;;;21.00;19.10;;;;;;;;;;5283717;28;20263;-69
2023/09/09 01:17:30;;;;;;;24.10;21.92;;;;;;;;;;5283985;28;20079;-69
2023/09/09 01:20:07;;;;;;;24.58;22.52;;;;;;;;;;5284395;28;20029;-69
2023/09/09 01:22:39;;;;;;;25.58;23.13;;;;;;;;;;5282954;28;20371;-69
2023/09/09 01:25:11;;;;;;;26.92;24.52;;;;;;;;;;5284096;28;20021;-69
2023/09/09 01:27:42;;;;;;;24.75;22.48;;;;;;;;;;5283393;28;20055;-69
2023/09/09 01:30:14;;;;;;;27.07;24.27;;;;;;;;;;5283301;28;20142;-69
2023/09/09 01:32:45;;;;;;;26.95;24.40;;;;;;;;;;5283604;28;20255;-69
2023/09/09 01:35:16;;;;;;;30.13;27.40;;;;;;;;;;5283868;28;20032;-69
2023/09/09 01:37:49;;;;;;;27.75;25.27;;;;;;;;;;5282600;28;20342;-69
2023/09/09 01:40:21;;;;;;;27.50;25.00;;;;;;;;;;5284037;28;20020;-69
2023/09/09 01:42:52;;;;;;;26.20;23.90;;;;;;;;;;5283193;28;20364;-68
2023/09/09 01:45:23;;;;;;;25.53;23.30;;;;;;;;;;5282604;28;20024;-68
2023/09/09 01:47:54;;;;;;;24.97;22.83;;;;;;;;;;5283782;28;20742;-68
2023/09/09 01:50:26;;;;;;;23.98;21.88;;;;;;;;;;5282983;28;20362;-68
2023/09/09 01:52:58;;;;;;;24.48;22.25;;;;;;;;;;5283559;28;20082;-68
2023/09/09 01:55:29;;;;;;;24.23;22.15;;;;;;;;;;5283293;28;20032;-68
2023/09/09 01:58:00;;;;;;;25.15;22.95;;;;;;;;;;5282499;28;20024;-68
2023/09/09 02:00:31;;;;;;;26.02;23.63;;;;;;;;;;5282765;28;20039;-69
2023/09/09 02:03:03;;;;;;;25.63;23.43;;;;;;;;;;5283229;28;20023;-68
2023/09/09 02:05:34;;;;;;;27.17;24.67;;;;;;;;;;5281078;28;20325;-68
2023/09/09 02:08:06;;;;;;;27.92;25.42;;;;;;;;;;5282577;28;20036;-68
2023/09/09 02:10:37;;;;;;;27.15;24.52;;;;;;;;;;5282704;28;20078;-68
2023/09/09 02:13:08;;;;;;;27.57;25.07;;;;;;;;;;5282350;28;20090;-68
2023/09/09 02:15:39;;;;;;;27.47;25.13;;;;;;;;;;5282805;28;20282;-68
2023/09/09 02:18:10;;;;;;;25.93;23.63;;;;;;;;;;5283499;28;20346;-68
2023/09/09 02:20:41;;;;;;;25.37;23.20;;;;;;;;;;5281479;28;20302;-68
2023/09/09 02:23:13;;;;;;;25.30;23.13;;;;;;;;;;5283352;28;20689;-68
2023/09/09 02:25:44;;;;;;;24.67;22.63;;;;;;;;;;5281895;28;20103;-68
2023/09/09 02:28:16;;;;;;;26.15;23.70;;;;;;;;;;5283008;28;20263;-69
2023/09/09 02:30:48;;;;;;;28.23;25.48;;;;;;;;;;5282295;28;20021;-68
2023/09/09 02:33:19;;;;;;;32.33;29.35;;;;;;;;;;5281851;28;20013;-69
2023/09/09 02:35:50;;;;;;;37.10;33.63;;;;;;;;;;5281895;28;20065;-69
2023/09/09 02:38:21;;;;;;;37.25;33.78;;;;;;;;;;5282507;28;20395;-68
2023/09/09 02:40:53;;;;;;;35.50;32.10;;;;;;;;;;5280983;28;20490;-68
2023/09/09 02:43:24;;;;;;;34.95;31.95;;;;;;;;;;5282428;28;20751;-69
2023/09/09 02:45:55;;;;;;;37.60;34.13;;;;;;;;;;5282511;28;20021;-69
2023/09/09 02:48:26;;;;;;;37.65;34.33;;;;;;;;;;5281869;28;20259;-69
2023/09/09 02:50:57;;;;;;;39.67;35.97;;;;;;;;;;5282506;28;20035;-69
2023/09/09 02:53:30;;;;;;;39.63;35.80;;;;;;;;;;5281482;28;20442;-69
2023/09/09 02:56:01;;;;;;;41.72;37.72;;;;;;;;;;5282301;28;20267;-69
2023/09/09 02:58:32;;;;;;;42.00;38.17;;;;;;;;;;5281708;28;20410;-69
2023/09/09 03:01:04;;;;;;;44.33;40.28;;;;;;;;;;5281957;28;20322;-69
2023/09/09 03:03:35;;;;;;;45.00;40.70;;;;;;;;;;5281775;28;20495;-69
2023/09/09 03:06:09;;;;;;;46.53;41.97;;;;;;;;;;5282084;28;20047;-69
2023/09/09 03:08:40;;;;;;;47.95;43.30;;;;;;;;;;5280581;28;20333;-68
2023/09/09 03:11:12;;;;;;;47.75;43.25;;;;;;;;;;5282130;28;20028;-68
2023/09/09 03:13:43;;;;;;;47.97;43.58;;;;;;;;;;5281470;28;20023;-69
2023/09/09 03:16:14;;;;;;;47.07;42.27;;;;;;;;;;5281136;28;20016;-69
2023/09/09 03:18:46;;;;;;;45.30;40.90;;;;;;;;;;5280850;28;20258;-69
2023/09/09 03:21:17;;;;;;;46.70;42.33;;;;;;;;;;5281795;28;20793;-68
2023/09/09 03:23:48;;;;;;;47.27;42.57;;;;;;;;;;5280624;28;20660;-69
2023/09/09 03:26:22;;;;;;;49.23;44.57;;;;;;;;;;5281723;28;20320;-68
2023/09/09 03:28:53;;;;;;;51.60;46.55;;;;;;;;;;5280240;28;21073;-68
2023/09/09 03:31:25;;;;;;;53.53;48.40;;;;;;;;;;5281909;28;20103;-68
2023/09/09 03:33:56;;;;;;;53.47;48.38;;;;;;;;;;5281704;28;20267;-68
2023/09/09 03:36:27;;;;;;;60.73;54.63;;;;;;;;;;5280864;28;20020;-69
2023/09/09 03:39:03;;;;;;;58.80;53.17;;;;;;;;;;5281723;28;20801;-68
2023/09/09 03:41:34;;;;;;;57.65;52.13;;;;;;;;;;5280871;28;20308;-69
2023/09/09 03:44:05;;;;;;;54.63;49.00;;;;;;;;;;5280714;28;20460;-68
2023/09/09 03:46:36;;;;;;;54.85;49.60;;;;;;;;;;5281328;28;20467;-69
2023/09/09 03:49:07;;;;;;;54.20;48.97;;;;;;;;;;5282025;28;20056;-68
2023/09/09 03:51:39;;;;;;;56.67;50.97;;;;;;;;;;5280197;28;20100;-68
2023/09/09 03:54:10;;;;;;;54.08;48.83;;;;;;;;;;5281686;28;20123;-68
2023/09/09 03:56:41;;;;;;;53.10;47.95;;;;;;;;;;5280980;28;20025;-70
2023/09/09 03:59:12;;;;;;;52.50;47.47;;;;;;;;;;5281512;28;20374;-68
2023/09/09 04:01:44;;;;;;;54.10;48.90;;;;;;;;;;5281043;28;20352;-68
2023/09/09 04:04:15;;;;;;;52.03;47.03;;;;;;;;;;5280846;28;20016;-68
2023/09/09 04:06:46;;;;;;;53.10;47.85;;;;;;;;;;5280906;28;20013;-68
2023/09/09 04:09:22;;;;;;;53.07;47.77;;;;;;;;;;5281536;28;20060;-68
2023/09/09 04:11:54;;;;;;;49.80;44.83;;;;;;;;;;5280214;28;20259;-69
2023/09/09 04:14:25;;;;;;;48.05;43.40;;;;;;;;;;5281438;28;20435;-69
2023/09/09 04:16:56;;;;;;;47.80;43.37;;;;;;;;;;5281216;28;20024;-69
2023/09/09 04:19:27;;;;;;;49.03;44.50;;;;;;;;;;5280843;28;20263;-69
2023/09/09 04:21:58;;;;;;;48.77;44.13;;;;;;;;;;5281406;28;20064;-69
2023/09/09 04:24:30;;;;;;;50.15;45.33;;;;;;;;;;5280880;28;20259;-69
2023/09/09 04:27:01;;;;;;;51.40;46.58;;;;;;;;;;5280373;28;20309;-69
2023/09/09 04:29:32;;;;;;;52.25;47.45;;;;;;;;;;5281526;28;20021;-70
2023/09/09 04:32:03;;;;;;;49.87;45.20;;;;;;;;;;5284403;28;20031;-69
2023/09/09 04:34:34;;;;;;;53.47;48.47;;;;;;;;;;5284573;28;20448;-69
2023/09/09 04:37:06;;;;;;;52.97;47.85;;;;;;;;;;5284945;28;20073;-69
2023/09/09 04:39:37;;;;;;;51.55;46.55;;;;;;;;;;5283419;28;20016;-69
2023/09/09 04:42:08;;;;;;;53.80;48.70;;;;;;;;;;5284719;28;20029;-69
2023/09/09 04:44:39;;;;;;;52.90;47.80;;;;;;;;;;5284115;28;20812;-70
2023/09/09 04:47:11;;;;;;;52.92;47.90;;;;;;;;;;5284474;28;20025;-70
2023/09/09 04:49:42;;;;;;;51.50;46.60;;;;;;;;;;5284079;28;20212;-70
2023/09/09 04:52:13;;;;;;;54.40;49.10;;;;;;;;;;5284538;28;20354;-69
2023/09/09 04:54:44;;;;;;;52.87;47.60;;;;;;;;;;5283265;28;20483;-69
2023/09/09 04:57:16;;;;;;;53.65;48.55;;;;;;;;;;5284503;28;20302;-70
2023/09/09 04:59:47;;;;;;;53.38;48.42;;;;;;;;;;5283947;28;20372;-70
2023/09/09 05:02:18;;;;;;;54.23;49.17;;;;;;;;;;5283651;28;20028;-69
2023/09/09 05:04:50;;;;;;;56.60;51.23;;;;;;;;;;5283705;28;20313;-70
2023/09/09 05:07:23;;;;;;;59.20;53.28;;;;;;;;;;5283407;28;20301;-69
2023/09/09 05:09:54;;;;;;;64.43;58.05;;;;;;;;;;5284298;28;20578;-69
2023/09/09 05:12:25;;;;;;;69.07;62.05;;;;;;;;;;5284120;28;20131;-69
2023/09/09 05:14:57;;;;;;;69.65;62.05;;;;;;;;;;5283117;28;20546;-69
2023/09/09 05:17:28;;;;;;;69.20;61.83;;;;;;;;;;5283744;28;20021;-69
2023/09/09 05:19:59;;;;;;;72.45;64.90;;;;;;;;;;5283564;28;20025;-69
2023/09/09 05:22:30;;;;;;;67.57;60.50;;;;;;;;;;5282714;28;20341;-69
2023/09/09 05:25:02;;;;;;;80.78;66.13;;;;;;;;;;5283927;28;20286;-69
2023/09/09 05:27:33;;;;;;;89.50;68.25;;;;;;;;;;5283161;28;20352;-70
2023/09/09 05:30:06;;;;;;;253.57;73.57;;;;;;;;;;5283695;28;20497;-69
2023/09/09 05:32:37;;;;;;;110.03;68.22;;;;;;;;;;5283706;28;20040;-69
2023/09/09 05:35:11;;;;;;;91.47;68.00;;;;;;;;;;5284011;28;20016;-69
2023/09/09 05:37:42;;;;;;;109.57;69.28;;;;;;;;;;5283401;28;20270;-69
2023/09/09 05:40:14;;;;;;;115.18;69.22;;;;;;;;;;5283984;28;20036;-69
2023/09/09 05:42:45;;;;;;;163.18;69.22;;;;;;;;;;5282414;28;20597;-69
2023/09/09 05:45:16;;;;;;;173.40;68.60;;;;;;;;;;5284049;28;20013;-69
2023/09/09 05:47:48;;;;;;;99.30;70.35;;;;;;;;;;5282949;28;20038;-69
2023/09/09 05:50:19;;;;;;;273.98;68.30;;;;;;;;;;5282759;28;20479;-70
2023/09/09 05:52:52;;;;;;;126.20;67.18;;;;;;;;;;5282909;28;20025;-68
2023/09/09 05:55:23;;;;;;;134.35;65.05;;;;;;;;;;5283538;28;20387;-68
2023/09/09 05:57:54;;;;;;;164.73;68.10;;;;;;;;;;5282579;28;20012;-68
2023/09/09 06:00:25;;;;;;;92.22;64.05;;;;;;;;;;5283034;28;20036;-68
2023/09/09 06:02:57;;;;;;;139.52;64.00;;;;;;;;;;5282882;28;20017;-68
2023/09/09 06:05:28;;;;;;;88.82;61.95;;;;;;;;;;5282409;28;20017;-68
2023/09/09 06:07:59;;;;;;;132.00;63.53;;;;;;;;;;5282682;28;20052;-68
2023/09/09 06:10:30;;;;;;;100.85;64.10;;;;;;;;;;5281603;28;20491;-68
2023/09/09 06:13:02;;;;;;;101.82;66.43;;;;;;;;;;5282852;28;20024;-68
2023/09/09 06:15:34;;;;;;;101.93;67.35;;;;;;;;;;5282697;28;20079;-69
2023/09/09 06:18:06;;;;;;;82.13;66.03;;;;;;;;;;5283035;28;20017;-68
2023/09/09 06:20:37;;;;;;;75.32;64.28;;;;;;;;;;5282717;28;20046;-68
2023/09/09 06:23:08;;;;;;;70.47;62.57;;;;;;;;;;5283390;28;20017;-68
2023/09/09 06:25:39;;;;;;;70.55;61.92;;;;;;;;;;5282024;28;20777;-69
2023/09/09 06:28:11;;;;;;;69.90;63.05;;;;;;;;;;5283240;28;20021;-68
2023/09/09 06:30:45;;;;;;;69.82;59.28;;;;;;;;;;5282636;28;20031;-68
2023/09/09 06:33:16;;;;;;;61.40;55.50;;;;;;;;;;5281052;28;20009;-68
2023/09/09 06:35:48;;;;;;;60.38;55.00;;;;;;;;;;5282427;28;20086;-68
2023/09/09 06:38:19;;;;;;;60.95;55.55;;;;;;;;;;5283079;28;20008;-68
2023/09/09 06:40:50;;;;;;;61.90;56.38;;;;;;;;;;5281423;28;20155;-68
2023/09/09 06:43:22;;;;;;;59.15;53.88;;;;;;;;;;5282701;28;20054;-68
2023/09/09 06:45:53;;;;;;;60.30;54.97;;;;;;;;;;5281302;28;20020;-68
2023/09/09 06:48:24;;;;;;;60.03;54.67;;;;;;;;;;5282554;28;20468;-68
2023/09/09 06:50:56;;;;;;;60.83;55.42;;;;;;;;;;5282476;28;20090;-68
2023/09/09 06:53:27;;;;;;;60.05;54.83;;;;;;;;;;5281289;28;20015;-68
2023/09/09 06:55:58;;;;;;;60.13;54.87;;;;;;;;;;5282363;28;20024;-68
2023/09/09 06:58:29;;;;;;;61.40;55.83;;;;;;;;;;5282315;28;20266;-68
2023/09/09 07:01:02;;;;;;;59.40;54.00;;;;;;;;;;5281650;28;20315;-69
2023/09/09 07:03:34;;;;;;;61.67;56.22;;;;;;;;;;5281831;28;20032;-69
2023/09/09 07:06:05;;;;;;;61.33;55.88;;;;;;;;;;5282438;28;20036;-68
2023/09/09 07:08:40;;;;;;;60.63;54.88;;;;;;;;;;5280874;28;20043;-69
2023/09/09 07:11:11;;;;;;;70.00;63.53;;;;;;;;;;5282655;28;20095;-69
2023/09/09 07:13:42;;;;;;;64.77;58.70;;;;;;;;;;5281024;28;20481;-69
2023/09/09 07:16:13;;;;;;;67.50;61.17;;;;;;;;;;5282480;28;20328;-69
2023/09/09 07:18:44;;;;;;;72.57;65.65;;;;;;;;;;5281858;28;20031;-69
2023/09/09 07:21:16;;;;;;;71.20;64.37;;;;;;;;;;5281475;28;20082;-69
2023/09/09 07:23:47;;;;;;;73.18;66.32;;;;;;;;;;5281529;28;20621;-69
2023/09/09 07:26:18;;;;;;;71.97;65.00;;;;;;;;;;5281732;28;20013;-69
2023/09/09 07:28:50;;;;;;;75.15;67.82;;;;;;;;;;5280510;28;20099;-69
2023/09/09 07:31:21;;;;;;;71.73;64.87;;;;;;;;;;5282073;28;20063;-69
2023/09/09 07:33:53;;;;;;;72.93;65.75;;;;;;;;;;5280984;28;20271;-69
2023/09/09 07:36:25;;;;;;;73.40;65.75;;;;;;;;;;5280808;28;20095;-69
2023/09/09 07:38:56;;;;;;;75.20;68.10;;;;;;;;;;5281421;28;20100;-69
2023/09/09 07:41:27;;;;;;;72.75;65.93;;;;;;;;;;5281671;28;20056;-69
2023/09/09 07:43:58;;;;;;;77.27;69.60;;;;;;;;;;5280703;28;20027;-69
2023/09/09 07:46:29;;;;;;;78.47;70.83;;;;;;;;;;5280928;28;20278;-69
2023/09/09 07:49:00;;;;;;;77.83;70.30;;;;;;;;;;5280601;28;20345;-69
2023/09/09 07:51:32;;;;;;;76.30;69.03;;;;;;;;;;5280760;28;20271;-69
2023/09/09 07:54:03;;;;;;;78.80;71.30;;;;;;;;;;5281370;28;20275;-69
2023/09/09 07:56:34;;;;;;;82.38;74.43;;;;;;;;;;5280317;28;20259;-69
2023/09/09 07:59:05;;;;;;;81.03;73.10;;;;;;;;;;5281615;28;20017;-69
2023/09/09 08:01:37;;;;;;;85.93;77.88;;;;;;;;;;5280620;28;20484;-69
2023/09/09 08:04:08;;;;;;;85.73;77.63;;;;;;;;;;5281348;28;20463;-69
2023/09/09 08:06:39;;;;;;;85.10;77.07;;;;;;;;;;5285601;28;20262;-69
2023/09/09 08:09:10;;;;;;;83.57;75.47;;;;;;;;;;5285480;28;20278;-69
2023/09/09 08:11:42;;;;;;;81.80;74.25;;;;;;;;;;5284238;28;20427;-69
2023/09/09 08:14:13;;;;;;;81.97;74.50;;;;;;;;;;5285564;28;20025;-69
2023/09/09 08:16:44;;;;;;;73.60;66.60;;;;;;;;;;5285047;28;20356;-69
2023/09/09 08:19:16;;;;;;;76.95;69.82;;;;;;;;;;5284725;28;20111;-69
2023/09/09 08:21:47;;;;;;;72.47;65.65;;;;;;;;;;5284690;28;20039;-69
2023/09/09 08:24:19;;;;;;;73.53;66.68;;;;;;;;;;5284428;28;20048;-69
2023/09/09 08:26:52;;;;;;;72.05;65.28;;;;;;;;;;5285138;28;20051;-69
2023/09/09 08:29:23;;;;;;;66.65;60.45;;;;;;;;;;5285429;28;20138;-70
2023/09/09 08:31:54;;;;;;;65.00;59.07;;;;;;;;;;5284458;28;20043;-70
2023/09/09 08:34:25;;;;;;;66.33;60.03;;;;;;;;;;5285388;28;20405;-69
2023/09/09 08:36:57;;;;;;;60.00;54.33;;;;;;;;;;5285230;28;20364;-70
2023/09/09 08:39:28;;;;;;;68.97;62.77;;;;;;;;;;5270862;28;20281;-70
2023/09/09 08:41:59;;;;;;;64.07;58.10;;;;;;;;;;5283033;28;20895;-67
2023/09/09 08:44:49;;;;;;;55.50;50.33;;;;;;;;;;5283313;28;20271;-69
2023/09/09 08:47:20;;;;;;;53.20;48.10;;;;;;;;;;5282342;28;20302;-69
2023/09/09 08:49:52;;;;;;;52.20;47.60;;;;;;;;;;5282695;28;20052;-68
2023/09/09 08:52:24;;;;;;;51.38;46.65;;;;;;;;;;5282267;28;20016;-67
2023/09/09 08:54:56;;;;;;;53.42;48.65;;;;;;;;;;5283682;28;20487;-67
2023/09/09 08:57:28;;;;;;;45.67;41.53;;;;;;;;;;5283122;28;20024;-67
2023/09/09 09:00:01;;;;;;;46.78;42.33;;;;;;;;;;5282339;28;20107;-67
2023/09/09 09:02:33;;;;;;;44.90;40.58;;;;;;;;;;5283108;28;20040;-69
2023/09/09 09:05:04;;;;;;;45.20;41.08;;;;;;;;;;5283439;28;20025;-68
2023/09/09 09:07:36;;;;;;;35.88;32.67;;;;;;;;;;5281522;28;20567;-69
2023/09/09 09:10:07;;;;;;;37.00;33.65;;;;;;;;;;5283738;28;20100;-68
2023/09/09 09:12:40;;;;;;;27.90;25.45;;;;;;;;;;5283028;28;20052;-69
2023/09/09 09:15:11;;;;;;;27.80;25.20;;;;;;;;;;5282880;28;20097;-69
2023/09/09 09:17:44;;;;;;;26.50;24.08;;;;;;;;;;5283012;28;20112;-70
2023/09/09 09:20:25;;;;;;;23.15;21.05;;;;;;;;;;5282875;28;20413;-71
2023/09/09 09:23:00;;;;;;;22.48;20.45;;;;;;;;;;5282171;28;20024;-73
2023/09/09 09:25:35;;;;;;;21.48;19.10;;;;;;;;;;5282835;28;20470;-73
2023/09/09 09:28:06;;;;;;;24.77;22.38;;;;;;;;;;5283257;28;20173;-73
2023/09/09 09:30:37;;;;;;;21.73;19.83;;;;;;;;;;5283442;28;20402;-72
2023/09/09 09:33:09;;;;;;;26.83;24.15;;;;;;;;;;5283824;28;20270;-72
2023/09/09 09:35:40;;;;;;;25.23;22.73;;;;;;;;;;5282607;28;20487;-70
2023/09/09 09:38:12;;;;;;;21.50;19.27;;;;;;;;;;5284226;28;20030;-70
2023/09/09 09:40:44;;;;;;;12.73;11.55;;;;;;;;;;5283216;28;20127;-70
2023/09/09 09:43:19;;;;;;;7.68;6.97;;;;;;;;;;5283053;28;20091;-71
2023/09/09 09:45:50;;;;;;;6.70;5.65;;;;;;;;;;5283448;28;20551;-71
2023/09/09 09:48:25;;;;;;;4.80;4.30;;;;;;;;;;5283887;28;20013;-71
2023/09/09 09:50:56;;;;;;;11.13;9.75;;;;;;;;;;5283420;28;20270;-70
2023/09/09 09:53:28;;;;;;;10.03;8.70;;;;;;;;;;5283376;28;20027;-71
2023/09/09 09:56:00;;;;;;;9.57;8.68;;;;;;;;;;5282481;28;20285;-69
2023/09/09 09:58:35;;;;;;;7.45;6.00;;;;;;;;;;5282809;28;20020;-69
2023/09/09 10:01:06;;;;;;;4.22;3.83;;;;;;;;;;5283473;28;20039;-69
2023/09/09 10:03:46;;;;;;;3.90;3.28;;;;;;;;;;5282118;28;20024;-69
2023/09/09 10:06:22;;;;;;;4.55;4.18;;;;;;;;;;5283389;28;20020;-69
2023/09/09 10:09:00;;;;;;;6.70;6.05;;;;;;;;;;5282405;28;20083;-69
2023/09/09 10:11:35;;;;;;;6.53;6.00;;;;;;;;;;5282020;28;20024;-69
2023/09/09 10:14:16;;;;;;;6.70;6.10;;;;;;;;;;5283191;28;20051;-67
2023/09/09 10:16:48;;;;;;;5.05;4.57;;;;;;;;;;5281752;28;20023;-71
2023/09/09 10:19:20;;;;;;;5.15;4.75;;;;;;;;;;5282096;28;20428;-71
2023/09/09 10:21:51;;;;;;;6.72;4.75;;;;;;;;;;5282710;28;20123;-70
2023/09/09 10:24:23;;;;;;;4.85;4.53;;;;;;;;;;5282218;28;20026;-71
2023/09/09 10:26:56;;;;;;;5.72;5.10;;;;;;;;;;5281997;28;20028;-70
2023/09/09 10:29:28;;;;;;;6.03;5.43;;;;;;;;;;5282929;28;20016;-70
2023/09/09 10:32:03;;;;;;;7.28;6.50;;;;;;;;;;5282153;28;20062;-70
2023/09/09 10:34:35;;;;;;;6.57;5.93;;;;;;;;;;5282451;28;20099;-70
2023/09/09 10:37:07;;;;;;;6.72;4.43;;;;;;;;;;5282585;28;20389;-70
2023/09/09 10:39:39;;;;;;;4.47;3.58;;;;;;;;;;5280932;28;20023;-70
2023/09/09 10:42:10;;;;;;;3.03;2.75;;;;;;;;;;5282480;28;20031;-71
2023/09/09 10:44:51;;;;;;;4.00;3.60;;;;;;;;;;5281374;28;20021;-71
2023/09/09 10:47:22;;;;;;;3.50;2.70;;;;;;;;;;5282563;28;20439;-71
2023/09/09 10:50:02;;;;;;;3.07;2.77;;;;;;;;;;5281697;28;20013;-71
2023/09/09 10:52:33;;;;;;;2.90;2.30;;;;;;;;;;5280746;28;20115;-71
2023/09/09 10:55:11;;;;;;;3.17;2.60;;;;;;;;;;5282520;28;20471;-71
2023/09/09 10:57:43;;;;;;;5.10;2.13;;;;;;;;;;5281377;28;20078;-71
2023/09/09 11:00:34;;;;;;;2.55;1.90;;;;;;;;;;5281163;28;20471;-71
2023/09/09 11:03:31;;;;;;;2.42;1.98;;;;;;;;;;5281691;28;20119;-70
2023/09/09 11:06:05;;;;;;;3.30;1.70;;;;;;;;;;5265053;28;20442;-69
2023/09/09 11:08:43;;;;;;;2.33;1.88;;;;;;;;;;5281306;28;20048;-69
2023/09/09 11:11:18;;;;;;;2.08;1.88;;;;;;;;;;5282173;28;20016;-69
2023/09/09 11:14:09;;;;;;;4.57;2.45;;;;;;;;;;5280788;28;20028;-69
2023/09/09 11:16:41;;;;;;;2.28;1.40;;;;;;;;;;5281038;28;20111;-68
2023/09/09 11:19:13;;;;;;;3.47;3.13;;;;;;;;;;5281832;28;20020;-67
2023/09/09 11:21:49;;;;;;;3.70;3.22;;;;;;;;;;5280487;28;20055;-67
2023/09/09 11:24:20;;;;;;;4.95;3.30;;;;;;;;;;5281592;28;20127;-67
2023/09/09 11:26:53;;;;;;;4.03;3.45;;;;;;;;;;5281103;28;20040;-68
2023/09/09 11:29:24;;;;;;;4.25;2.42;;;;;;;;;;5281854;28;20017;-68
2023/09/09 11:31:55;;;;;;;3.22;2.90;;;;;;;;;;5281939;28;20024;-67
2023/09/09 11:34:28;;;;;;;2.80;1.90;;;;;;;;;;5280988;28;20418;-67
2023/09/09 11:37:00;;;;;;;2.97;2.70;;;;;;;;;;5281688;28;20024;-67
2023/09/09 11:39:41;;;;;;;2.63;2.13;;;;;;;;;;5281272;28;20505;-67
2023/09/09 11:42:12;;;;;;;2.10;1.67;;;;;;;;;;5281188;28;20501;-67
2023/09/09 11:44:43;;;;;;;2.93;2.60;;;;;;;;;;5281277;28;20021;-67
2023/09/09 11:47:15;;;;;;;2.70;2.50;;;;;;;;;;5281769;28;20021;-67
2023/09/09 11:49:48;;;;;;;2.53;2.30;;;;;;;;;;5280020;28;20059;-67
2023/09/09 11:52:21;;;;;;;3.53;2.00;;;;;;;;;;5281624;28;20024;-67
2023/09/09 11:54:52;;;;;;;3.78;1.95;;;;;;;;;;5281450;28;20023;-67
2023/09/09 11:57:23;;;;;;;1.70;1.10;;;;;;;;;;5280614;28;20016;-67
2023/09/09 11:59:57;;;;;;;3.72;2.00;;;;;;;;;;5281593;28;20036;-67
2023/09/09 12:02:28;;;;;;;4.45;1.95;;;;;;;;;;5280720;28;20129;-67
2023/09/09 12:05:01;;;;;;;2.72;2.20;;;;;;;;;;5281704;28;20036;-66
2023/09/09 12:07:33;;;;;;;3.33;1.88;;;;;;;;;;5280806;28;20071;-67
2023/09/09 12:10:07;;;;;;;4.13;2.38;;;;;;;;;;5281031;28;20114;-67
2023/09/09 12:12:40;;;;;;;5.10;2.75;;;;;;;;;;5280841;28;20455;-67
2023/09/09 12:15:12;;;;;;;5.30;2.38;;;;;;;;;;5281230;28;20021;-67
2023/09/09 12:17:43;;;;;;;3.15;2.30;;;;;;;;;;5279829;28;20123;-67
2023/09/09 12:20:14;;;;;;;2.70;1.67;;;;;;;;;;5281031;28;20066;-67
2023/09/09 12:22:51;;;;;;;4.55;1.73;;;;;;;;;;5280467;28;20263;-67
2023/09/09 12:25:32;;;;;;;5.43;1.80;;;;;;;;;;5280795;28;20027;-67
2023/09/09 12:28:03;;;;;;;2.95;2.38;;;;;;;;;;5281160;28;20109;-67
2023/09/09 12:30:38;;;;;;;2.17;1.67;;;;;;;;;;5280035;28;20040;-68
2023/09/09 12:33:11;;;;;;;3.63;1.67;;;;;;;;;;5281472;28;20020;-67
2023/09/09 12:35:43;;;;;;;4.32;1.75;;;;;;;;;;5280749;28;20086;-67
2023/09/09 12:38:15;;;;;;;3.42;1.80;;;;;;;;;;5280487;28;20025;-67
2023/09/09 12:40:46;;;;;;;4.70;1.88;;;;;;;;;;5280335;28;20021;-67
2023/09/09 12:43:22;;;;;;;3.90;1.92;;;;;;;;;;5280107;28;20063;-67
2023/09/09 12:46:03;;;;;;;3.65;1.50;;;;;;;;;;5279444;28;20055;-67
2023/09/09 12:48:54;;;;;;;3.22;1.33;;;;;;;;;;5280552;28;20091;-67
2023/09/09 12:51:28;;;;;;;4.28;1.35;;;;;;;;;;5281911;28;20032;-67
2023/09/09 12:54:00;;;;;;;2.58;1.27;;;;;;;;;;5285071;28;20490;-66
2023/09/09 12:56:32;;;;;;;5.03;1.75;;;;;;;;;;5284345;28;20024;-68
2023/09/09 12:59:03;;;;;;;2.77;1.33;;;;;;;;;;5284167;28;20017;-66
2023/09/09 13:01:34;;;;;;;3.50;1.25;;;;;;;;;;5284027;28;20036;-66
2023/09/09 13:04:05;;;;;;;4.53;1.70;;;;;;;;;;5284586;28;20111;-68
2023/09/09 13:06:36;;;;;;;3.60;1.53;;;;;;;;;;5283591;28;20017;-67
2023/09/09 13:09:08;;;;;;;4.30;1.70;;;;;;;;;;5284693;28;20283;-67
2023/09/09 13:11:39;;;;;;;5.53;1.77;;;;;;;;;;5284054;28;20274;-67
2023/09/09 13:14:10;;;;;;;3.88;1.33;;;;;;;;;;5283748;28;20668;-67
2023/09/09 13:16:43;;;;;;;4.70;1.57;;;;;;;;;;5284210;28;20459;-67
2023/09/09 13:19:16;;;;;;;4.07;1.67;;;;;;;;;;5284476;28;20271;-67
2023/09/09 13:21:48;;;;;;;6.35;1.33;;;;;;;;;;5283126;28;20032;-68
2023/09/09 13:24:19;;;;;;;3.45;1.27;;;;;;;;;;5284648;28;20016;-68
2023/09/09 13:26:50;;;;;;;8.03;2.47;;;;;;;;;;5282977;28;20025;-68
2023/09/09 13:29:21;;;;;;;4.03;1.48;;;;;;;;;;5284804;28;20036;-68
2023/09/09 13:31:53;;;;;;;6.67;1.70;;;;;;;;;;5283979;28;20028;-67
2023/09/09 13:34:25;;;;;;;5.90;2.15;;;;;;;;;;5283548;28;20448;-68
2023/09/09 13:36:56;;;;;;;4.20;1.50;;;;;;;;;;5284488;28;20062;-68
2023/09/09 13:39:27;;;;;;;6.07;2.20;;;;;;;;;;5283913;28;20262;-68
2023/09/09 13:41:58;;;;;;;5.80;2.05;;;;;;;;;;5283231;28;20036;-68
2023/09/09 13:44:29;;;;;;;4.33;1.60;;;;;;;;;;5283777;28;20482;-68
2023/09/09 13:47:00;;;;;;;3.73;1.40;;;;;;;;;;5284147;28;20086;-68
2023/09/09 13:49:32;;;;;;;6.17;1.40;;;;;;;;;;5282367;28;20023;-68
2023/09/09 13:52:04;;;;;;;5.35;2.13;;;;;;;;;;5283943;28;20082;-68
2023/09/09 13:54:35;;;;;;;5.32;2.55;;;;;;;;;;5282549;28;20063;-68
2023/09/09 13:57:07;;;;;;;5.30;3.10;;;;;;;;;;5283833;28;20012;-68
2023/09/09 13:59:38;;;;;;;4.20;2.00;;;;;;;;;;5283088;28;20275;-68
2023/09/09 14:02:09;;;;;;;4.13;2.47;;;;;;;;;;5282711;28;20043;-67
2023/09/09 14:04:40;;;;;;;7.07;2.57;;;;;;;;;;5282960;28;20307;-68
2023/09/09 14:07:11;;;;;;;6.50;2.00;;;;;;;;;;5283655;28;20048;-68
2023/09/09 14:09:45;;;;;;;5.77;2.23;;;;;;;;;;5282290;28;20282;-68
2023/09/09 14:12:16;;;;;;;8.73;1.88;;;;;;;;;;5280752;28;20035;-67
2023/09/09 14:14:47;;;;;;;8.60;2.47;;;;;;;;;;5278795;28;20348;-67
2023/09/09 14:17:19;;;;;;;5.38;1.95;;;;;;;;;;5282416;28;20028;-66
2023/09/09 14:19:50;;;;;;;7.35;1.88;;;;;;;;;;5282688;28;20020;-66
2023/09/09 14:22:21;;;;;;;4.70;1.90;;;;;;;;;;5282051;28;20158;-66
2023/09/09 14:24:52;;;;;;;4.75;1.77;;;;;;;;;;5281483;28;20032;-66
2023/09/09 14:27:23;;;;;;;5.73;2.03;;;;;;;;;;5282763;28;20028;-66
2023/09/09 14:29:55;;;;;;;5.20;1.83;;;;;;;;;;5281885;28;20022;-66
2023/09/09 14:32:26;;;;;;;5.20;2.03;;;;;;;;;;5282431;28;20028;-66
2023/09/09 14:34:57;;;;;;;3.93;1.80;;;;;;;;;;5282447;28;20367;-67
2023/09/09 14:37:28;;;;;;;4.57;2.07;;;;;;;;;;5280226;28;20111;-67
2023/09/09 14:39:59;;;;;;;6.82;1.52;;;;;;;;;;5281963;28;20028;-67
2023/09/09 14:42:31;;;;;;;4.63;1.80;;;;;;;;;;5281728;28;20036;-67
2023/09/09 14:45:03;;;;;;;7.87;2.00;;;;;;;;;;5282267;28;20324;-67
2023/09/09 14:47:35;;;;;;;8.77;1.50;;;;;;;;;;5281703;28;20047;-67
2023/09/09 14:50:06;;;;;;;5.43;1.70;;;;;;;;;;5281891;28;20028;-67
2023/09/09 14:52:37;;;;;;;4.00;1.70;;;;;;;;;;5280327;28;20103;-67
2023/09/09 14:55:09;;;;;;;3.92;2.70;;;;;;;;;;5282654;28;20027;-67